Terminal Aerodrome Forecast
Issued by NWS

Home | Current Version | Previous Version | Text Only | Print | Product List | Glossary Off
Versions: 1 2 3 4 5 6 7 8 9 10 11 12 13 14 15 16 17 18 19 20 21 22 23

000
FTUS43 KTOP 271729
TAFFOE
TAF
KFOE 271729Z 2718/2818 26005KT P6SM FEW250
     FM272000 17005KT P6SM BKN200
     FM280100 14005KT P6SM VCSH BKN070
     FM280600 08010KT 6SM SHRA VCTS SCT020 OVC030CB
     FM280900 09013KT 5SM SHRA OVC010
     FM281200 09008KT 6SM BR OVC008
     FM281600 18005KT P6SM BKN008=

USA.gov is the U.S. government's official web portal to all federal, state and local government web resources and services.